sensor_id;sensor_type;location;lat;lon;timestamp;P1;durP1;ratioP1;P2;durP2;ratioP2
16967;SDS011;64862;54.398;10.126;2023-06-22T01:55:24;16.85;;;10.40;;
16967;SDS011;64862;54.398;10.126;2023-06-22T02:05:27;15.25;;;10.57;;
16967;SDS011;64862;54.398;10.126;2023-06-22T02:15:34;17.30;;;11.03;;
16967;SDS011;64862;54.398;10.126;2023-06-22T02:25:37;14.23;;;10.18;;
16967;SDS011;64862;54.398;10.126;2023-06-22T02:35:41;15.25;;;9.98;;
16967;SDS011;64862;54.398;10.126;2023-06-22T02:45:48;16.10;;;11.27;;
16967;SDS011;64862;54.398;10.126;2023-06-22T02:55:52;18.90;;;11.35;;
16967;SDS011;64862;54.398;10.126;2023-06-22T03:05:54;21.17;;;14.00;;
16967;SDS011;64862;54.398;10.126;2023-06-22T03:15:59;17.20;;;13.38;;
16967;SDS011;64862;54.398;10.126;2023-06-22T03:26:01;17.90;;;13.43;;
16967;SDS011;64862;54.398;10.126;2023-06-22T03:36:06;22.58;;;15.90;;
16967;SDS011;64862;54.398;10.126;2023-06-22T03:46:08;20.42;;;15.65;;
16967;SDS011;64862;54.398;10.126;2023-06-22T03:56:12;23.42;;;15.40;;
16967;SDS011;64862;54.398;10.126;2023-06-22T04:06:20;20.65;;;14.75;;
16967;SDS011;64862;54.398;10.126;2023-06-22T04:16:24;17.10;;;12.63;;
16967;SDS011;64862;54.398;10.126;2023-06-22T04:26:26;18.60;;;12.68;;
16967;SDS011;64862;54.398;10.126;2023-06-22T04:36:29;15.85;;;11.27;;
16967;SDS011;64862;54.398;10.126;2023-06-22T04:46:38;15.90;;;9.13;;
16967;SDS011;64862;54.398;10.126;2023-06-22T04:56:42;13.40;;;7.53;;
16967;SDS011;64862;54.398;10.126;2023-06-22T05:06:46;15.48;;;7.93;;
16967;SDS011;64862;54.398;10.126;2023-06-22T05:16:50;12.63;;;8.20;;
16967;SDS011;64862;54.398;10.126;2023-06-22T05:26:53;11.02;;;7.60;;
16967;SDS011;64862;54.398;10.126;2023-06-22T05:36:56;11.90;;;7.43;;
16967;SDS011;64862;54.398;10.126;2023-06-22T05:47:00;13.88;;;7.05;;
16967;SDS011;64862;54.398;10.126;2023-06-22T05:57:04;13.02;;;8.60;;
16967;SDS011;64862;54.398;10.126;2023-06-22T06:07:06;13.93;;;8.98;;
16967;SDS011;64862;54.398;10.126;2023-06-22T06:17:10;12.88;;;8.00;;
16967;SDS011;64862;54.398;10.126;2023-06-22T06:27:13;9.90;;;6.07;;
16967;SDS011;64862;54.398;10.126;2023-06-22T06:37:16;6.70;;;3.70;;
16967;SDS011;64862;54.398;10.126;2023-06-22T06:47:19;6.63;;;3.88;;
16967;SDS011;64862;54.398;10.126;2023-06-22T06:57:23;5.93;;;3.20;;
16967;SDS011;64862;54.398;10.126;2023-06-22T07:07:28;6.32;;;2.83;;
16967;SDS011;64862;54.398;10.126;2023-06-22T07:17:34;8.57;;;2.88;;
16967;SDS011;64862;54.398;10.126;2023-06-22T07:27:37;5.25;;;2.45;;
16967;SDS011;64862;54.398;10.126;2023-06-22T07:37:44;4.73;;;2.27;;
16967;SDS011;64862;54.398;10.126;2023-06-22T07:47:46;6.07;;;2.50;;
16967;SDS011;64862;54.398;10.126;2023-06-22T07:57:50;5.95;;;2.40;;
16967;SDS011;64862;54.398;10.126;2023-06-22T08:07:53;4.72;;;2.15;;
16967;SDS011;64862;54.398;10.126;2023-06-22T08:17:56;5.30;;;2.75;;
16967;SDS011;64862;54.398;10.126;2023-06-22T08:27:59;5.90;;;2.45;;
16967;SDS011;64862;54.398;10.126;2023-06-22T08:38:02;5.47;;;2.97;;
16967;SDS011;64862;54.398;10.126;2023-06-22T08:48:05;4.82;;;2.58;;
16967;SDS011;64862;54.398;10.126;2023-06-22T08:58:08;3.63;;;2.30;;
16967;SDS011;64862;54.398;10.126;2023-06-22T09:08:10;6.47;;;2.55;;
16967;SDS011;64862;54.398;10.126;2023-06-22T09:18:14;5.78;;;2.42;;
16967;SDS011;64862;54.398;10.126;2023-06-22T09:28:16;5.18;;;2.67;;
16967;SDS011;64862;54.398;10.126;2023-06-22T09:38:22;4.57;;;2.50;;
16967;SDS011;64862;54.398;10.126;2023-06-22T09:48:24;4.38;;;1.90;;
16967;SDS011;64862;54.398;10.126;2023-06-22T09:58:28;4.85;;;2.20;;
16967;SDS011;64862;54.398;10.126;2023-06-22T10:08:30;6.32;;;2.45;;
16967;SDS011;64862;54.398;10.126;2023-06-22T10:18:34;4.05;;;2.13;;
16967;SDS011;64862;54.398;10.126;2023-06-22T10:28:36;5.50;;;2.20;;
16967;SDS011;64862;54.398;10.126;2023-06-22T10:38:39;6.15;;;2.20;;
16967;SDS011;64862;54.398;10.126;2023-06-22T10:48:41;4.55;;;2.10;;
16967;SDS011;64862;54.398;10.126;2023-06-22T10:58:45;4.80;;;2.13;;
16967;SDS011;64862;54.398;10.126;2023-06-22T11:08:47;3.88;;;1.92;;
16967;SDS011;64862;54.398;10.126;2023-06-22T11:18:51;6.57;;;2.00;;
16967;SDS011;64862;54.398;10.126;2023-06-22T11:28:53;4.50;;;1.88;;
16967;SDS011;64862;54.398;10.126;2023-06-22T11:38:57;6.40;;;1.80;;
16967;SDS011;64862;54.398;10.126;2023-06-22T11:48:59;3.45;;;1.48;;
16967;SDS011;64862;54.398;10.126;2023-06-22T11:59:03;4.53;;;1.70;;
16967;SDS011;64862;54.398;10.126;2023-06-22T12:09:05;4.47;;;1.70;;
16967;SDS011;64862;54.398;10.126;2023-06-22T12:19:09;3.90;;;1.23;;
16967;SDS011;64862;54.398;10.126;2023-06-22T12:29:14;3.22;;;1.30;;
16967;SDS011;64862;54.398;10.126;2023-06-22T12:39:17;3.17;;;1.30;;
16967;SDS011;64862;54.398;10.126;2023-06-22T12:49:19;2.97;;;1.30;;
16967;SDS011;64862;54.398;10.126;2023-06-22T12:59:23;3.55;;;1.20;;
16967;SDS011;64862;54.398;10.126;2023-06-22T13:09:25;2.60;;;1.20;;
16967;SDS011;64862;54.398;10.126;2023-06-22T13:19:32;2.55;;;1.20;;
16967;SDS011;64862;54.398;10.126;2023-06-22T13:29:34;4.80;;;1.20;;
16967;SDS011;64862;54.398;10.126;2023-06-22T13:39:37;2.15;;;1.00;;
16967;SDS011;64862;54.398;10.126;2023-06-22T13:49:39;2.40;;;1.10;;
16967;SDS011;64862;54.398;10.126;2023-06-22T13:59:43;2.78;;;1.25;;
16967;SDS011;64862;54.398;10.126;2023-06-22T14:09:45;2.45;;;1.10;;
16967;SDS011;64862;54.398;10.126;2023-06-22T14:19:49;1.30;;;0.73;;
16967;SDS011;64862;54.398;10.126;2023-06-22T14:29:52;6.10;;;1.00;;
16967;SDS011;64862;54.398;10.126;2023-06-22T14:39:56;1.75;;;0.95;;
16967;SDS011;64862;54.398;10.126;2023-06-22T14:50:00;2.50;;;0.95;;
16967;SDS011;64862;54.398;10.126;2023-06-22T15:00:05;2.60;;;0.90;;
16967;SDS011;64862;54.398;10.126;2023-06-22T15:10:08;1.47;;;0.80;;
16967;SDS011;64862;54.398;10.126;2023-06-22T15:20:13;1.88;;;0.85;;
16967;SDS011;64862;54.398;10.126;2023-06-22T15:30:16;1.27;;;0.77;;
16967;SDS011;64862;54.398;10.126;2023-06-22T15:40:20;1.83;;;0.90;;
16967;SDS011;64862;54.398;10.126;2023-06-22T15:50:22;1.67;;;1.00;;
16967;SDS011;64862;54.398;10.126;2023-06-22T16:00:26;1.42;;;0.88;;
16967;SDS011;64862;54.398;10.126;2023-06-22T16:10:28;2.67;;;1.10;;
16967;SDS011;64862;54.398;10.126;2023-06-22T16:20:32;1.67;;;0.90;;
16967;SDS011;64862;54.398;10.126;2023-06-22T16:30:34;2.55;;;0.82;;
16967;SDS011;64862;54.398;10.126;2023-06-22T16:40:38;1.60;;;0.85;;
16967;SDS011;64862;54.398;10.126;2023-06-22T16:50:40;1.70;;;0.73;;
16967;SDS011;64862;54.398;10.126;2023-06-22T17:00:43;1.80;;;0.88;;
16967;SDS011;64862;54.398;10.126;2023-06-22T17:10:46;2.67;;;1.20;;
16967;SDS011;64862;54.398;10.126;2023-06-22T17:20:51;1.33;;;1.00;;
16967;SDS011;64862;54.398;10.126;2023-06-22T17:31:06;2.13;;;0.90;;
16967;SDS011;64862;54.398;10.126;2023-06-22T17:41:11;1.27;;;0.77;;
16967;SDS011;64862;54.398;10.126;2023-06-22T17:51:14;5.43;;;1.00;;
16967;SDS011;64862;54.398;10.126;2023-06-22T18:01:21;2.40;;;0.80;;
16967;SDS011;64862;54.398;10.126;2023-06-22T18:11:33;1.80;;;1.00;;
16967;SDS011;64862;54.398;10.126;2023-06-22T18:21:40;3.05;;;1.02;;
16967;SDS011;64862;54.398;10.126;2023-06-22T18:31:43;1.90;;;1.05;;
16967;SDS011;64862;54.398;10.126;2023-06-22T18:41:50;1.50;;;1.10;;
16967;SDS011;64862;54.398;10.126;2023-06-22T18:51:54;1.50;;;0.93;;
16967;SDS011;64862;54.398;10.126;2023-06-22T19:02:01;2.10;;;1.05;;
16967;SDS011;64862;54.398;10.126;2023-06-22T19:12:19;2.83;;;1.03;;
16967;SDS011;64862;54.398;10.126;2023-06-22T19:22:24;2.10;;;1.00;;
16967;SDS011;64862;54.398;10.126;2023-06-22T19:32:45;4.00;;;1.00;;
16967;SDS011;64862;54.398;10.126;2023-06-22T19:42:52;2.35;;;1.10;;
16967;SDS011;64862;54.398;10.126;2023-06-22T19:52:55;2.22;;;1.25;;
16967;SDS011;64862;54.398;10.126;2023-06-22T20:02:58;2.17;;;1.30;;
16967;SDS011;64862;54.398;10.126;2023-06-22T20:13:01;2.70;;;1.40;;
16967;SDS011;64862;54.398;10.126;2023-06-22T20:23:12;2.13;;;1.25;;
16967;SDS011;64862;54.398;10.126;2023-06-22T20:33:20;2.50;;;1.25;;
16967;SDS011;64862;54.398;10.126;2023-06-22T20:43:24;1.80;;;1.13;;
16967;SDS011;64862;54.398;10.126;2023-06-22T20:53:26;3.65;;;1.30;;
16967;SDS011;64862;54.398;10.126;2023-06-22T21:03:30;2.45;;;1.40;;
16967;SDS011;64862;54.398;10.126;2023-06-22T21:13:32;2.72;;;1.45;;
16967;SDS011;64862;54.398;10.126;2023-06-22T21:23:37;2.63;;;1.40;;
16967;SDS011;64862;54.398;10.126;2023-06-22T21:33:39;3.78;;;1.73;;
16967;SDS011;64862;54.398;10.126;2023-06-22T21:43:43;3.88;;;1.75;;
16967;SDS011;64862;54.398;10.126;2023-06-22T21:53:45;4.03;;;2.13;;
16967;SDS011;64862;54.398;10.126;2023-06-22T22:03:49;5.47;;;2.15;;
16967;SDS011;64862;54.398;10.126;2023-06-22T22:13:51;3.65;;;2.42;;
16967;SDS011;64862;54.398;10.126;2023-06-22T22:23:55;4.55;;;2.58;;
16967;SDS011;64862;54.398;10.126;2023-06-22T22:33:57;6.45;;;2.60;;
16967;SDS011;64862;54.398;10.126;2023-06-22T22:44:01;4.88;;;3.15;;
16967;SDS011;64862;54.398;10.126;2023-06-22T22:54:03;4.20;;;2.90;;
16967;SDS011;64862;54.398;10.126;2023-06-22T23:04:08;5.07;;;3.10;;
16967;SDS011;64862;54.398;10.126;2023-06-22T23:14:11;6.55;;;2.80;;
16967;SDS011;64862;54.398;10.126;2023-06-22T23:24:17;4.28;;;3.05;;
16967;SDS011;64862;54.398;10.126;2023-06-22T23:34:19;6.72;;;3.63;;
16967;SDS011;64862;54.398;10.126;2023-06-22T23:44:23;5.43;;;3.60;;
16967;SDS011;64862;54.398;10.126;2023-06-22T23:54:27;6.60;;;3.45;;
